sensor_id;sensor_type;location;lat;lon;timestamp;temperature;humidity
77523;SHT31;66637;-29.628;-49.938;2023-04-25T00:01:59;23.07;79.42
77523;SHT31;66637;-29.628;-49.938;2023-04-25T00:04:30;23.04;79.27
77523;SHT31;66637;-29.628;-49.938;2023-04-25T00:07:04;23.02;79.23
77523;SHT31;66637;-29.628;-49.938;2023-04-25T00:09:34;23.06;79.12
77523;SHT31;66637;-29.628;-49.938;2023-04-25T00:12:05;23.04;79.16
77523;SHT31;66637;-29.628;-49.938;2023-04-25T00:14:36;23.04;79.15
77523;SHT31;66637;-29.628;-49.938;2023-04-25T00:17:07;23.06;79.42
77523;SHT31;66637;-29.628;-49.938;2023-04-25T00:19:38;23.03;79.40
77523;SHT31;66637;-29.628;-49.938;2023-04-25T00:22:10;23.07;79.35
77523;SHT31;66637;-29.628;-49.938;2023-04-25T00:24:41;23.06;79.48
77523;SHT31;66637;-29.628;-49.938;2023-04-25T00:27:11;23.08;79.19
77523;SHT31;66637;-29.628;-49.938;2023-04-25T00:29:41;23.13;79.54
77523;SHT31;66637;-29.628;-49.938;2023-04-25T00:32:13;23.10;79.66
77523;SHT31;66637;-29.628;-49.938;2023-04-25T00:34:43;23.11;79.39
77523;SHT31;66637;-29.628;-49.938;2023-04-25T00:37:13;23.10;79.92
77523;SHT31;66637;-29.628;-49.938;2023-04-25T00:39:46;23.13;79.61
77523;SHT31;66637;-29.628;-49.938;2023-04-25T00:42:16;23.08;79.88
77523;SHT31;66637;-29.628;-49.938;2023-04-25T00:44:48;23.11;80.13
77523;SHT31;66637;-29.628;-49.938;2023-04-25T00:47:19;23.06;79.99
77523;SHT31;66637;-29.628;-49.938;2023-04-25T00:49:51;23.08;79.68
77523;SHT31;66637;-29.628;-49.938;2023-04-25T00:52:22;23.07;79.62
77523;SHT31;66637;-29.628;-49.938;2023-04-25T00:54:53;23.10;79.68
77523;SHT31;66637;-29.628;-49.938;2023-04-25T00:57:24;23.11;79.65
77523;SHT31;66637;-29.628;-49.938;2023-04-25T00:59:59;23.11;79.46
77523;SHT31;66637;-29.628;-49.938;2023-04-25T01:02:32;23.13;79.82
77523;SHT31;66637;-29.628;-49.938;2023-04-25T01:05:04;23.14;79.38
77523;SHT31;66637;-29.628;-49.938;2023-04-25T01:07:36;23.14;79.48
77523;SHT31;66637;-29.628;-49.938;2023-04-25T01:10:06;23.13;79.65
77523;SHT31;66637;-29.628;-49.938;2023-04-25T01:12:37;23.11;79.96
77523;SHT31;66637;-29.628;-49.938;2023-04-25T01:15:08;23.07;79.88
77523;SHT31;66637;-29.628;-49.938;2023-04-25T01:17:40;23.04;79.71
77523;SHT31;66637;-29.628;-49.938;2023-04-25T01:20:14;23.07;80.06
77523;SHT31;66637;-29.628;-49.938;2023-04-25T01:22:46;23.07;79.83
77523;SHT31;66637;-29.628;-49.938;2023-04-25T01:25:17;23.08;79.83
77523;SHT31;66637;-29.628;-49.938;2023-04-25T01:27:48;23.10;79.74
77523;SHT31;66637;-29.628;-49.938;2023-04-25T01:30:19;23.04;79.84
77523;SHT31;66637;-29.628;-49.938;2023-04-25T01:32:51;23.07;79.49
77523;SHT31;66637;-29.628;-49.938;2023-04-25T01:35:23;23.07;79.86
77523;SHT31;66637;-29.628;-49.938;2023-04-25T01:37:55;23.04;79.59
77523;SHT31;66637;-29.628;-49.938;2023-04-25T01:40:27;23.06;79.17
77523;SHT31;66637;-29.628;-49.938;2023-04-25T01:42:57;23.04;79.06
77523;SHT31;66637;-29.628;-49.938;2023-04-25T01:45:28;23.03;78.88
77523;SHT31;66637;-29.628;-49.938;2023-04-25T01:48:00;23.03;79.26
77523;SHT31;66637;-29.628;-49.938;2023-04-25T01:50:31;23.03;79.01
77523;SHT31;66637;-29.628;-49.938;2023-04-25T01:53:02;23.00;79.19
77523;SHT31;66637;-29.628;-49.938;2023-04-25T01:55:34;22.99;79.21
77523;SHT31;66637;-29.628;-49.938;2023-04-25T01:58:11;22.99;79.32
77523;SHT31;66637;-29.628;-49.938;2023-04-25T02:00:57;22.97;79.31
77523;SHT31;66637;-29.628;-49.938;2023-04-25T02:03:34;23.02;79.52
77523;SHT31;66637;-29.628;-49.938;2023-04-25T02:06:09;23.00;79.17
77523;SHT31;66637;-29.628;-49.938;2023-04-25T02:08:43;23.00;79.06
77523;SHT31;66637;-29.628;-49.938;2023-04-25T02:11:14;23.02;79.19
77523;SHT31;66637;-29.628;-49.938;2023-04-25T02:13:54;23.03;79.57
77523;SHT31;66637;-29.628;-49.938;2023-04-25T02:16:44;22.99;80.07
77523;SHT31;66637;-29.628;-49.938;2023-04-25T02:19:15;22.96;80.34
77523;SHT31;66637;-29.628;-49.938;2023-04-25T02:21:47;22.93;80.13
77523;SHT31;66637;-29.628;-49.938;2023-04-25T02:24:18;22.93;80.22
77523;SHT31;66637;-29.628;-49.938;2023-04-25T02:26:49;22.86;80.06
77523;SHT31;66637;-29.628;-49.938;2023-04-25T02:29:20;22.89;80.56
77523;SHT31;66637;-29.628;-49.938;2023-04-25T02:31:50;22.86;80.67
77523;SHT31;66637;-29.628;-49.938;2023-04-25T02:34:21;22.86;80.72
77523;SHT31;66637;-29.628;-49.938;2023-04-25T02:36:52;22.89;81.01
77523;SHT31;66637;-29.628;-49.938;2023-04-25T02:39:23;22.82;80.90
77523;SHT31;66637;-29.628;-49.938;2023-04-25T02:41:56;22.82;80.74
77523;SHT31;66637;-29.628;-49.938;2023-04-25T02:44:29;22.79;80.59
77523;SHT31;66637;-29.628;-49.938;2023-04-25T02:47:02;22.80;80.96
77523;SHT31;66637;-29.628;-49.938;2023-04-25T02:49:33;22.79;80.48
77523;SHT31;66637;-29.628;-49.938;2023-04-25T02:52:04;22.79;80.75
77523;SHT31;66637;-29.628;-49.938;2023-04-25T02:54:35;22.82;80.52
77523;SHT31;66637;-29.628;-49.938;2023-04-25T02:57:06;22.86;80.47
77523;SHT31;66637;-29.628;-49.938;2023-04-25T02:59:38;22.83;80.43
77523;SHT31;66637;-29.628;-49.938;2023-04-25T03:02:09;22.87;80.56
77523;SHT31;66637;-29.628;-49.938;2023-04-25T03:04:40;22.87;80.19
77523;SHT31;66637;-29.628;-49.938;2023-04-25T03:07:11;22.90;79.99
77523;SHT31;66637;-29.628;-49.938;2023-04-25T03:09:42;22.89;80.42
77523;SHT31;66637;-29.628;-49.938;2023-04-25T03:12:13;22.89;80.05
77523;SHT31;66637;-29.628;-49.938;2023-04-25T03:14:43;22.55;78.87
77523;SHT31;66637;-29.628;-49.938;2023-04-25T03:17:15;22.23;78.33
77523;SHT31;66637;-29.628;-49.938;2023-04-25T03:19:45;22.06;79.06
77523;SHT31;66637;-29.628;-49.938;2023-04-25T03:22:15;21.95;79.29
77523;SHT31;66637;-29.628;-49.938;2023-04-25T03:24:46;21.94;79.99
77523;SHT31;66637;-29.628;-49.938;2023-04-25T03:27:17;21.94;80.85
77523;SHT31;66637;-29.628;-49.938;2023-04-25T03:29:49;21.92;81.81
77523;SHT31;66637;-29.628;-49.938;2023-04-25T03:32:19;21.81;81.84
77523;SHT31;66637;-29.628;-49.938;2023-04-25T03:34:50;21.80;82.87
77523;SHT31;66637;-29.628;-49.938;2023-04-25T03:37:20;21.82;82.60
77523;SHT31;66637;-29.628;-49.938;2023-04-25T03:39:51;21.90;82.34
77523;SHT31;66637;-29.628;-49.938;2023-04-25T03:42:24;21.95;82.49
77523;SHT31;66637;-29.628;-49.938;2023-04-25T03:44:55;22.00;82.56
77523;SHT31;66637;-29.628;-49.938;2023-04-25T03:47:25;21.97;82.64
77523;SHT31;66637;-29.628;-49.938;2023-04-25T03:49:56;21.97;82.55
77523;SHT31;66637;-29.628;-49.938;2023-04-25T03:52:29;21.94;82.72
77523;SHT31;66637;-29.628;-49.938;2023-04-25T03:55:00;21.94;82.59
77523;SHT31;66637;-29.628;-49.938;2023-04-25T03:57:30;21.94;82.58
77523;SHT31;66637;-29.628;-49.938;2023-04-25T04:00:01;21.87;82.35
77523;SHT31;66637;-29.628;-49.938;2023-04-25T04:02:39;21.84;82.04
77523;SHT31;66637;-29.628;-49.938;2023-04-25T04:05:13;21.75;81.83
77523;SHT31;66637;-29.628;-49.938;2023-04-25T04:07:50;21.70;81.69
77523;SHT31;66637;-29.628;-49.938;2023-04-25T04:10:23;21.70;81.48
77523;SHT31;66637;-29.628;-49.938;2023-04-25T04:12:55;21.64;81.61
77523;SHT31;66637;-29.628;-49.938;2023-04-25T04:15:26;21.61;81.51
77523;SHT31;66637;-29.628;-49.938;2023-04-25T04:17:57;21.60;81.53
77523;SHT31;66637;-29.628;-49.938;2023-04-25T04:20:34;21.53;81.47
77523;SHT31;66637;-29.628;-49.938;2023-04-25T04:23:06;21.51;81.44
77523;SHT31;66637;-29.628;-49.938;2023-04-25T04:25:38;21.50;81.46
77523;SHT31;66637;-29.628;-49.938;2023-04-25T04:28:33;21.51;81.37
77523;SHT31;66637;-29.628;-49.938;2023-04-25T04:31:23;21.47;81.43
77523;SHT31;66637;-29.628;-49.938;2023-04-25T04:33:54;21.44;81.55
77523;SHT31;66637;-29.628;-49.938;2023-04-25T04:36:24;21.43;81.52
77523;SHT31;66637;-29.628;-49.938;2023-04-25T04:38:56;21.44;81.52
77523;SHT31;66637;-29.628;-49.938;2023-04-25T04:41:48;21.38;81.52
77523;SHT31;66637;-29.628;-49.938;2023-04-25T04:44:36;21.43;81.59
77523;SHT31;66637;-29.628;-49.938;2023-04-25T04:47:47;21.43;81.51
77523;SHT31;66637;-29.628;-49.938;2023-04-25T04:50:37;21.37;81.50
77523;SHT31;66637;-29.628;-49.938;2023-04-25T04:53:15;21.34;81.58
77523;SHT31;66637;-29.628;-49.938;2023-04-25T04:56:03;21.31;81.53
77523;SHT31;66637;-29.628;-49.938;2023-04-25T04:58:57;21.26;81.74
77523;SHT31;66637;-29.628;-49.938;2023-04-25T05:01:35;21.22;81.76
77523;SHT31;66637;-29.628;-49.938;2023-04-25T05:04:19;21.19;81.91
77523;SHT31;66637;-29.628;-49.938;2023-04-25T05:07:24;21.19;81.78
77523;SHT31;66637;-29.628;-49.938;2023-04-25T05:10:26;21.13;81.86
77523;SHT31;66637;-29.628;-49.938;2023-04-25T05:12:57;21.09;81.95
77523;SHT31;66637;-29.628;-49.938;2023-04-25T05:15:53;21.04;81.93
77523;SHT31;66637;-29.628;-49.938;2023-04-25T05:18:56;21.04;81.88
77523;SHT31;66637;-29.628;-49.938;2023-04-25T05:21:33;20.99;82.09
77523;SHT31;66637;-29.628;-49.938;2023-04-25T05:24:23;20.96;82.06
77523;SHT31;66637;-29.628;-49.938;2023-04-25T05:27:21;20.89;82.25
77523;SHT31;66637;-29.628;-49.938;2023-04-25T05:30:21;20.83;82.29
77523;SHT31;66637;-29.628;-49.938;2023-04-25T05:33:11;20.82;82.25
77523;SHT31;66637;-29.628;-49.938;2023-04-25T05:35:45;20.83;82.24
77523;SHT31;66637;-29.628;-49.938;2023-04-25T05:38:16;20.77;82.30
77523;SHT31;66637;-29.628;-49.938;2023-04-25T05:41:06;20.80;82.18
77523;SHT31;66637;-29.628;-49.938;2023-04-25T05:43:42;20.80;82.14
77523;SHT31;66637;-29.628;-49.938;2023-04-25T05:46:24;20.82;82.03
77523;SHT31;66637;-29.628;-49.938;2023-04-25T05:49:15;20.80;82.04
77523;SHT31;66637;-29.628;-49.938;2023-04-25T05:52:05;20.77;82.13
77523;SHT31;66637;-29.628;-49.938;2023-04-25T05:54:48;20.76;82.19
77523;SHT31;66637;-29.628;-49.938;2023-04-25T05:57:27;20.76;82.35
77523;SHT31;66637;-29.628;-49.938;2023-04-25T05:59:58;20.73;82.23
77523;SHT31;66637;-29.628;-49.938;2023-04-25T06:02:43;20.75;82.04
77523;SHT31;66637;-29.628;-49.938;2023-04-25T06:05:15;20.72;82.03
77523;SHT31;66637;-29.628;-49.938;2023-04-25T06:07:47;20.72;81.98
77523;SHT31;66637;-29.628;-49.938;2023-04-25T06:10:18;20.72;81.86
77523;SHT31;66637;-29.628;-49.938;2023-04-25T06:12:49;20.75;81.88
77523;SHT31;66637;-29.628;-49.938;2023-04-25T06:15:22;20.76;81.90
77523;SHT31;66637;-29.628;-49.938;2023-04-25T06:17:56;20.77;81.86
77523;SHT31;66637;-29.628;-49.938;2023-04-25T06:20:29;20.75;81.85
77523;SHT31;66637;-29.628;-49.938;2023-04-25T06:23:00;20.71;81.82
77523;SHT31;66637;-29.628;-49.938;2023-04-25T06:25:48;20.75;81.84
77523;SHT31;66637;-29.628;-49.938;2023-04-25T06:28:19;20.68;81.70
77523;SHT31;66637;-29.628;-49.938;2023-04-25T06:31:00;20.76;81.68
77523;SHT31;66637;-29.628;-49.938;2023-04-25T06:33:30;20.64;81.76
77523;SHT31;66637;-29.628;-49.938;2023-04-25T06:36:01;20.58;81.77
77523;SHT31;66637;-29.628;-49.938;2023-04-25T06:38:32;20.56;81.82
77523;SHT31;66637;-29.628;-49.938;2023-04-25T06:41:05;20.53;81.75
77523;SHT31;66637;-29.628;-49.938;2023-04-25T06:43:37;20.51;81.80
77523;SHT31;66637;-29.628;-49.938;2023-04-25T06:46:25;20.46;81.95
77523;SHT31;66637;-29.628;-49.938;2023-04-25T06:48:59;20.45;81.95
77523;SHT31;66637;-29.628;-49.938;2023-04-25T06:51:30;20.45;82.05
77523;SHT31;66637;-29.628;-49.938;2023-04-25T06:54:00;20.41;81.98
77523;SHT31;66637;-29.628;-49.938;2023-04-25T06:56:40;20.45;82.04
77523;SHT31;66637;-29.628;-49.938;2023-04-25T06:59:14;20.41;82.05
77523;SHT31;66637;-29.628;-49.938;2023-04-25T07:01:46;20.38;82.13
77523;SHT31;66637;-29.628;-49.938;2023-04-25T07:04:24;20.36;81.98
77523;SHT31;66637;-29.628;-49.938;2023-04-25T07:06:57;20.35;82.11
77523;SHT31;66637;-29.628;-49.938;2023-04-25T07:09:36;20.32;82.08
77523;SHT31;66637;-29.628;-49.938;2023-04-25T07:12:07;20.32;81.90
77523;SHT31;66637;-29.628;-49.938;2023-04-25T07:14:39;20.29;81.99
77523;SHT31;66637;-29.628;-49.938;2023-04-25T07:17:10;20.28;82.09
77523;SHT31;66637;-29.628;-49.938;2023-04-25T07:19:41;20.28;82.09
77523;SHT31;66637;-29.628;-49.938;2023-04-25T07:22:12;20.28;82.34
77523;SHT31;66637;-29.628;-49.938;2023-04-25T07:24:42;20.20;82.36
77523;SHT31;66637;-29.628;-49.938;2023-04-25T07:27:20;20.15;82.50
77523;SHT31;66637;-29.628;-49.938;2023-04-25T07:30:14;20.20;82.68
77523;SHT31;66637;-29.628;-49.938;2023-04-25T07:32:45;20.22;82.33
77523;SHT31;66637;-29.628;-49.938;2023-04-25T07:35:16;20.24;82.23
77523;SHT31;66637;-29.628;-49.938;2023-04-25T07:37:48;20.18;82.49
77523;SHT31;66637;-29.628;-49.938;2023-04-25T07:40:20;20.13;82.58
77523;SHT31;66637;-29.628;-49.938;2023-04-25T07:42:58;20.15;82.64
77523;SHT31;66637;-29.628;-49.938;2023-04-25T07:45:37;20.13;82.72
77523;SHT31;66637;-29.628;-49.938;2023-04-25T07:48:09;20.15;82.56
77523;SHT31;66637;-29.628;-49.938;2023-04-25T07:50:41;20.08;82.68
77523;SHT31;66637;-29.628;-49.938;2023-04-25T07:53:11;20.05;82.51
77523;SHT31;66637;-29.628;-49.938;2023-04-25T07:55:50;20.04;82.80
77523;SHT31;66637;-29.628;-49.938;2023-04-25T07:58:21;20.01;82.89
77523;SHT31;66637;-29.628;-49.938;2023-04-25T08:00:56;19.97;82.98
77523;SHT31;66637;-29.628;-49.938;2023-04-25T08:03:37;19.97;83.07
77523;SHT31;66637;-29.628;-49.938;2023-04-25T08:06:15;19.93;83.09
77523;SHT31;66637;-29.628;-49.938;2023-04-25T08:09:09;19.93;83.27
77523;SHT31;66637;-29.628;-49.938;2023-04-25T08:11:41;19.93;83.28
77523;SHT31;66637;-29.628;-49.938;2023-04-25T08:14:15;19.97;83.31
77523;SHT31;66637;-29.628;-49.938;2023-04-25T08:16:46;19.95;83.12
77523;SHT31;66637;-29.628;-49.938;2023-04-25T08:19:19;20.01;83.25
77523;SHT31;66637;-29.628;-49.938;2023-04-25T08:21:49;20.07;83.09
77523;SHT31;66637;-29.628;-49.938;2023-04-25T08:24:27;20.11;83.01
77523;SHT31;66637;-29.628;-49.938;2023-04-25T08:26:58;20.13;82.79
77523;SHT31;66637;-29.628;-49.938;2023-04-25T08:29:31;20.11;82.58
77523;SHT31;66637;-29.628;-49.938;2023-04-25T08:32:01;20.08;82.66
77523;SHT31;66637;-29.628;-49.938;2023-04-25T08:34:34;20.08;82.67
77523;SHT31;66637;-29.628;-49.938;2023-04-25T08:37:07;20.10;82.80
77523;SHT31;66637;-29.628;-49.938;2023-04-25T08:39:54;20.18;82.55
77523;SHT31;66637;-29.628;-49.938;2023-04-25T08:42:44;20.05;82.71
77523;SHT31;66637;-29.628;-49.938;2023-04-25T08:45:16;20.04;82.63
77523;SHT31;66637;-29.628;-49.938;2023-04-25T08:47:48;20.03;82.62
77523;SHT31;66637;-29.628;-49.938;2023-04-25T08:50:22;20.05;82.68
77523;SHT31;66637;-29.628;-49.938;2023-04-25T08:52:54;20.01;82.57
77523;SHT31;66637;-29.628;-49.938;2023-04-25T08:55:26;20.04;82.54
77523;SHT31;66637;-29.628;-49.938;2023-04-25T08:57:59;20.03;82.35
77523;SHT31;66637;-29.628;-49.938;2023-04-25T09:00:30;20.04;82.45
77523;SHT31;66637;-29.628;-49.938;2023-04-25T09:03:01;20.01;82.44
77523;SHT31;66637;-29.628;-49.938;2023-04-25T09:05:34;20.01;82.53
77523;SHT31;66637;-29.628;-49.938;2023-04-25T09:08:05;20.13;82.44
77523;SHT31;66637;-29.628;-49.938;2023-04-25T09:10:37;20.18;82.42
77523;SHT31;66637;-29.628;-49.938;2023-04-25T09:13:13;20.20;82.44
77523;SHT31;66637;-29.628;-49.938;2023-04-25T09:16:15;20.22;82.16
77523;SHT31;66637;-29.628;-49.938;2023-04-25T09:19:07;20.22;81.99
77523;SHT31;66637;-29.628;-49.938;2023-04-25T09:22:07;20.24;81.87
77523;SHT31;66637;-29.628;-49.938;2023-04-25T09:24:40;20.22;81.86
77523;SHT31;66637;-29.628;-49.938;2023-04-25T09:27:17;20.17;81.81
77523;SHT31;66637;-29.628;-49.938;2023-04-25T09:29:57;20.15;81.81
77523;SHT31;66637;-29.628;-49.938;2023-04-25T09:32:43;20.11;81.73
77523;SHT31;66637;-29.628;-49.938;2023-04-25T09:35:25;20.07;81.93
77523;SHT31;66637;-29.628;-49.938;2023-04-25T09:38:00;20.03;81.91
77523;SHT31;66637;-29.628;-49.938;2023-04-25T09:40:51;20.05;81.82
77523;SHT31;66637;-29.628;-49.938;2023-04-25T09:43:49;19.98;81.90
77523;SHT31;66637;-29.628;-49.938;2023-04-25T09:46:24;19.95;81.99
77523;SHT31;66637;-29.628;-49.938;2023-04-25T09:48:56;19.88;82.19
77523;SHT31;66637;-29.628;-49.938;2023-04-25T09:51:33;19.84;82.27
77523;SHT31;66637;-29.628;-49.938;2023-04-25T09:54:07;19.84;82.43
77523;SHT31;66637;-29.628;-49.938;2023-04-25T09:56:42;19.75;82.60
77523;SHT31;66637;-29.628;-49.938;2023-04-25T09:59:14;19.73;82.59
77523;SHT31;66637;-29.628;-49.938;2023-04-25T10:01:46;19.74;82.65
77523;SHT31;66637;-29.628;-49.938;2023-04-25T10:04:28;19.77;82.68
77523;SHT31;66637;-29.628;-49.938;2023-04-25T10:07:08;19.75;82.75
77523;SHT31;66637;-29.628;-49.938;2023-04-25T10:09:39;19.81;82.73
77523;SHT31;66637;-29.628;-49.938;2023-04-25T10:12:10;19.80;82.75
77523;SHT31;66637;-29.628;-49.938;2023-04-25T10:14:42;19.81;82.80
77523;SHT31;66637;-29.628;-49.938;2023-04-25T10:17:14;19.84;82.65
77523;SHT31;66637;-29.628;-49.938;2023-04-25T10:19:47;19.87;82.68
77523;SHT31;66637;-29.628;-49.938;2023-04-25T10:22:26;19.95;82.51
77523;SHT31;66637;-29.628;-49.938;2023-04-25T10:25:00;20.00;82.32
77523;SHT31;66637;-29.628;-49.938;2023-04-25T10:27:34;20.03;82.15
77523;SHT31;66637;-29.628;-49.938;2023-04-25T10:30:10;20.17;81.92
77523;SHT31;66637;-29.628;-49.938;2023-04-25T10:32:45;20.21;81.43
77523;SHT31;66637;-29.628;-49.938;2023-04-25T10:35:27;20.36;81.15
77523;SHT31;66637;-29.628;-49.938;2023-04-25T10:40:36;20.53;80.05
77523;SHT31;66637;-29.628;-49.938;2023-04-25T10:48:54;21.70;77.25
77523;SHT31;66637;-29.628;-49.938;2023-04-25T10:51:26;22.31;74.44
77523;SHT31;66637;-29.628;-49.938;2023-04-25T10:54:18;22.77;72.22
77523;SHT31;66637;-29.628;-49.938;2023-04-25T10:56:50;23.78;69.29
77523;SHT31;66637;-29.628;-49.938;2023-04-25T10:59:25;24.35;68.02
77523;SHT31;66637;-29.628;-49.938;2023-04-25T11:01:56;24.73;66.38
77523;SHT31;66637;-29.628;-49.938;2023-04-25T11:04:33;24.97;65.23
77523;SHT31;66637;-29.628;-49.938;2023-04-25T11:09:39;24.36;66.79
77523;SHT31;66637;-29.628;-49.938;2023-04-25T11:12:11;23.50;69.08
77523;SHT31;66637;-29.628;-49.938;2023-04-25T11:14:43;23.27;70.25
77523;SHT31;66637;-29.628;-49.938;2023-04-25T11:17:15;23.37;70.45
77523;SHT31;66637;-29.628;-49.938;2023-04-25T11:19:48;23.47;70.23
77523;SHT31;66637;-29.628;-49.938;2023-04-25T11:22:21;23.54;69.92
77523;SHT31;66637;-29.628;-49.938;2023-04-25T11:24:51;23.31;70.22
77523;SHT31;66637;-29.628;-49.938;2023-04-25T11:27:22;23.27;70.79
77523;SHT31;66637;-29.628;-49.938;2023-04-25T11:29:55;23.25;70.98
77523;SHT31;66637;-29.628;-49.938;2023-04-25T11:32:26;23.15;71.27
77523;SHT31;66637;-29.628;-49.938;2023-04-25T11:34:59;23.25;71.18
77523;SHT31;66637;-29.628;-49.938;2023-04-25T11:37:30;23.27;71.12
77523;SHT31;66637;-29.628;-49.938;2023-04-25T11:40:03;23.43;70.88
77523;SHT31;66637;-29.628;-49.938;2023-04-25T11:42:44;23.74;70.93
77523;SHT31;66637;-29.628;-49.938;2023-04-25T11:45:15;23.85;69.84
77523;SHT31;66637;-29.628;-49.938;2023-04-25T11:47:47;23.81;71.23
77523;SHT31;66637;-29.628;-49.938;2023-04-25T11:50:18;23.67;71.28
77523;SHT31;66637;-29.628;-49.938;2023-04-25T11:52:49;23.96;70.29
77523;SHT31;66637;-29.628;-49.938;2023-04-25T11:55:21;24.09;68.98
77523;SHT31;66637;-29.628;-49.938;2023-04-25T11:57:51;24.15;69.45
77523;SHT31;66637;-29.628;-49.938;2023-04-25T12:00:22;24.35;69.43
77523;SHT31;66637;-29.628;-49.938;2023-04-25T12:02:55;24.32;68.44
77523;SHT31;66637;-29.628;-49.938;2023-04-25T12:05:30;24.26;68.58
77523;SHT31;66637;-29.628;-49.938;2023-04-25T12:08:12;24.22;68.09
77523;SHT31;66637;-29.628;-49.938;2023-04-25T12:10:45;24.04;66.23
77523;SHT31;66637;-29.628;-49.938;2023-04-25T12:13:20;23.95;66.56
77523;SHT31;66637;-29.628;-49.938;2023-04-25T12:15:54;23.88;66.66
77523;SHT31;66637;-29.628;-49.938;2023-04-25T12:18:26;23.79;65.76
77523;SHT31;66637;-29.628;-49.938;2023-04-25T12:20:58;23.78;66.85
77523;SHT31;66637;-29.628;-49.938;2023-04-25T12:23:30;23.78;66.22
77523;SHT31;66637;-29.628;-49.938;2023-04-25T12:26:00;23.71;66.20
77523;SHT31;66637;-29.628;-49.938;2023-04-25T12:28:33;23.69;66.46
77523;SHT31;66637;-29.628;-49.938;2023-04-25T12:31:06;23.76;67.19
77523;SHT31;66637;-29.628;-49.938;2023-04-25T12:33:38;24.04;66.61
77523;SHT31;66637;-29.628;-49.938;2023-04-25T12:36:09;24.66;65.60
77523;SHT31;66637;-29.628;-49.938;2023-04-25T12:38:42;25.24;62.99
77523;SHT31;66637;-29.628;-49.938;2023-04-25T12:41:14;25.79;60.52
77523;SHT31;66637;-29.628;-49.938;2023-04-25T12:43:46;26.03;58.90
77523;SHT31;66637;-29.628;-49.938;2023-04-25T12:46:16;26.58;56.47
77523;SHT31;66637;-29.628;-49.938;2023-04-25T12:48:48;26.83;55.27
77523;SHT31;66637;-29.628;-49.938;2023-04-25T12:51:20;26.68;57.49
77523;SHT31;66637;-29.628;-49.938;2023-04-25T12:53:51;26.26;58.00
77523;SHT31;66637;-29.628;-49.938;2023-04-25T12:56:22;25.95;61.36
77523;SHT31;66637;-29.628;-49.938;2023-04-25T12:58:53;25.55;61.93
77523;SHT31;66637;-29.628;-49.938;2023-04-25T13:01:25;25.35;62.38
77523;SHT31;66637;-29.628;-49.938;2023-04-25T13:03:57;25.27;62.82
77523;SHT31;66637;-29.628;-49.938;2023-04-25T13:06:28;25.06;62.95
77523;SHT31;66637;-29.628;-49.938;2023-04-25T13:09:00;25.03;62.34
77523;SHT31;66637;-29.628;-49.938;2023-04-25T13:11:31;25.07;62.85
77523;SHT31;66637;-29.628;-49.938;2023-04-25T13:14:02;25.06;63.35
77523;SHT31;66637;-29.628;-49.938;2023-04-25T13:16:32;25.06;62.57
77523;SHT31;66637;-29.628;-49.938;2023-04-25T13:19:04;24.94;63.41
77523;SHT31;66637;-29.628;-49.938;2023-04-25T13:21:37;24.87;63.61
77523;SHT31;66637;-29.628;-49.938;2023-04-25T13:24:08;24.87;63.22
77523;SHT31;66637;-29.628;-49.938;2023-04-25T13:26:39;24.88;63.53
77523;SHT31;66637;-29.628;-49.938;2023-04-25T13:29:10;24.94;63.42
77523;SHT31;66637;-29.628;-49.938;2023-04-25T13:31:41;24.95;64.26
77523;SHT31;66637;-29.628;-49.938;2023-04-25T13:34:11;25.06;64.31
77523;SHT31;66637;-29.628;-49.938;2023-04-25T13:36:42;25.12;64.01
77523;SHT31;66637;-29.628;-49.938;2023-04-25T13:39:13;24.92;64.07
77523;SHT31;66637;-29.628;-49.938;2023-04-25T13:41:44;24.84;64.34
77523;SHT31;66637;-29.628;-49.938;2023-04-25T13:44:15;24.90;64.62
77523;SHT31;66637;-29.628;-49.938;2023-04-25T13:46:47;24.92;65.23
77523;SHT31;66637;-29.628;-49.938;2023-04-25T13:49:18;25.00;65.05
77523;SHT31;66637;-29.628;-49.938;2023-04-25T13:51:49;24.97;64.08
77523;SHT31;66637;-29.628;-49.938;2023-04-25T13:54:19;25.12;63.66
77523;SHT31;66637;-29.628;-49.938;2023-04-25T13:56:51;25.30;63.36
77523;SHT31;66637;-29.628;-49.938;2023-04-25T13:59:23;25.72;61.80
77523;SHT31;66637;-29.628;-49.938;2023-04-25T14:01:55;26.10;61.52
77523;SHT31;66637;-29.628;-49.938;2023-04-25T14:04:27;26.40;60.54
77523;SHT31;66637;-29.628;-49.938;2023-04-25T14:06:59;26.74;59.34
77523;SHT31;66637;-29.628;-49.938;2023-04-25T14:09:31;26.39;59.73
77523;SHT31;66637;-29.628;-49.938;2023-04-25T14:12:01;26.00;60.67
77523;SHT31;66637;-29.628;-49.938;2023-04-25T14:37:21;26.87;59.95
77523;SHT31;66637;-29.628;-49.938;2023-04-25T14:39:52;26.73;59.51
77523;SHT31;66637;-29.628;-49.938;2023-04-25T14:42:24;26.71;58.77
77523;SHT31;66637;-29.628;-49.938;2023-04-25T14:44:55;26.73;58.36
77523;SHT31;66637;-29.628;-49.938;2023-04-25T14:47:26;26.70;59.53
77523;SHT31;66637;-29.628;-49.938;2023-04-25T14:49:58;26.60;59.25
77523;SHT31;66637;-29.628;-49.938;2023-04-25T14:52:30;26.84;58.32
77523;SHT31;66637;-29.628;-49.938;2023-04-25T14:55:01;27.05;57.12
77523;SHT31;66637;-29.628;-49.938;2023-04-25T14:57:35;26.94;57.74
77523;SHT31;66637;-29.628;-49.938;2023-04-25T15:00:08;26.95;58.62
77523;SHT31;66637;-29.628;-49.938;2023-04-25T15:02:41;26.97;59.86
77523;SHT31;66637;-29.628;-49.938;2023-04-25T15:05:11;26.97;59.77
77523;SHT31;66637;-29.628;-49.938;2023-04-25T15:07:42;27.09;59.99
77523;SHT31;66637;-29.628;-49.938;2023-04-25T15:10:12;26.98;59.32
77523;SHT31;66637;-29.628;-49.938;2023-04-25T15:12:48;26.90;60.48
77523;SHT31;66637;-29.628;-49.938;2023-04-25T15:15:20;26.99;60.87
77523;SHT31;66637;-29.628;-49.938;2023-04-25T15:17:56;27.05;61.16
77523;SHT31;66637;-29.628;-49.938;2023-04-25T15:20:27;27.37;59.25
77523;SHT31;66637;-29.628;-49.938;2023-04-25T15:22:58;27.53;58.39
77523;SHT31;66637;-29.628;-49.938;2023-04-25T15:25:29;27.49;58.97
77523;SHT31;66637;-29.628;-49.938;2023-04-25T15:28:00;27.58;60.07
77523;SHT31;66637;-29.628;-49.938;2023-04-25T15:30:32;27.60;60.08
77523;SHT31;66637;-29.628;-49.938;2023-04-25T15:33:03;27.62;60.35
77523;SHT31;66637;-29.628;-49.938;2023-04-25T15:35:35;27.12;59.85
77523;SHT31;66637;-29.628;-49.938;2023-04-25T15:38:06;27.11;60.99
77523;SHT31;66637;-29.628;-49.938;2023-04-25T15:40:36;27.15;60.73
77523;SHT31;66637;-29.628;-49.938;2023-04-25T15:43:08;27.29;60.15
77523;SHT31;66637;-29.628;-49.938;2023-04-25T15:45:44;27.39;60.16
77523;SHT31;66637;-29.628;-49.938;2023-04-25T15:48:14;27.43;61.01
77523;SHT31;66637;-29.628;-49.938;2023-04-25T15:50:46;27.41;61.29
77523;SHT31;66637;-29.628;-49.938;2023-04-25T15:53:18;27.41;61.20
77523;SHT31;66637;-29.628;-49.938;2023-04-25T15:55:50;27.46;61.20
77523;SHT31;66637;-29.628;-49.938;2023-04-25T15:58:21;27.43;61.92
77523;SHT31;66637;-29.628;-49.938;2023-04-25T16:00:53;27.43;61.73
77523;SHT31;66637;-29.628;-49.938;2023-04-25T16:03:29;27.42;61.97
77523;SHT31;66637;-29.628;-49.938;2023-04-25T16:06:04;27.45;62.10